sensor_id;sensor_type;location;lat;lon;timestamp;temperature;humidity
21861;DHT22;11095;48.066;8.540;2023-08-31T00:01:46;11.60;99.90
21861;DHT22;11095;48.066;8.540;2023-08-31T00:04:13;11.70;99.90
21861;DHT22;11095;48.066;8.540;2023-08-31T00:06:42;11.60;99.90
21861;DHT22;11095;48.066;8.540;2023-08-31T00:09:10;11.60;99.90
21861;DHT22;11095;48.066;8.540;2023-08-31T00:11:36;11.70;99.90
21861;DHT22;11095;48.066;8.540;2023-08-31T00:14:02;11.70;99.90
21861;DHT22;11095;48.066;8.540;2023-08-31T00:16:28;11.60;99.90
21861;DHT22;11095;48.066;8.540;2023-08-31T00:18:56;11.60;99.90
21861;DHT22;11095;48.066;8.540;2023-08-31T00:21:22;11.60;99.90
21861;DHT22;11095;48.066;8.540;2023-08-31T00:23:48;11.60;99.90
21861;DHT22;11095;48.066;8.540;2023-08-31T00:26:14;11.50;99.90
21861;DHT22;11095;48.066;8.540;2023-08-31T00:28:40;11.50;99.90
21861;DHT22;11095;48.066;8.540;2023-08-31T00:31:10;11.40;99.90
21861;DHT22;11095;48.066;8.540;2023-08-31T00:33:38;11.40;99.90
21861;DHT22;11095;48.066;8.540;2023-08-31T00:36:04;11.30;99.90
21861;DHT22;11095;48.066;8.540;2023-08-31T00:38:30;11.30;99.90
21861;DHT22;11095;48.066;8.540;2023-08-31T00:40:56;11.20;99.90
21861;DHT22;11095;48.066;8.540;2023-08-31T00:43:22;11.20;99.90
21861;DHT22;11095;48.066;8.540;2023-08-31T00:45:50;11.20;99.90
21861;DHT22;11095;48.066;8.540;2023-08-31T00:48:17;11.20;99.90
21861;DHT22;11095;48.066;8.540;2023-08-31T00:50:46;11.20;99.90
21861;DHT22;11095;48.066;8.540;2023-08-31T00:53:13;11.10;99.90
21861;DHT22;11095;48.066;8.540;2023-08-31T00:55:39;11.10;99.90
21861;DHT22;11095;48.066;8.540;2023-08-31T00:58:08;11.10;99.90
21861;DHT22;11095;48.066;8.540;2023-08-31T01:00:57;11.10;99.90
21861;DHT22;11095;48.066;8.540;2023-08-31T01:06:27;11.00;99.90
21861;DHT22;11095;48.066;8.540;2023-08-31T01:09:02;11.00;99.90
21861;DHT22;11095;48.066;8.540;2023-08-31T01:14:57;10.90;99.90
21861;DHT22;11095;48.066;8.540;2023-08-31T01:17:27;10.90;99.90
21861;DHT22;11095;48.066;8.540;2023-08-31T01:19:55;10.90;99.90
21861;DHT22;11095;48.066;8.540;2023-08-31T01:22:27;10.90;99.90
21861;DHT22;11095;48.066;8.540;2023-08-31T01:24:55;10.90;99.90
21861;DHT22;11095;48.066;8.540;2023-08-31T01:27:21;10.90;99.90
21861;DHT22;11095;48.066;8.540;2023-08-31T01:29:46;10.90;99.90
21861;DHT22;11095;48.066;8.540;2023-08-31T01:32:12;11.00;99.90
21861;DHT22;11095;48.066;8.540;2023-08-31T01:34:38;11.00;99.90
21861;DHT22;11095;48.066;8.540;2023-08-31T01:37:10;11.00;99.90
21861;DHT22;11095;48.066;8.540;2023-08-31T01:40:06;10.90;99.90
21861;DHT22;11095;48.066;8.540;2023-08-31T01:42:33;10.90;99.90
21861;DHT22;11095;48.066;8.540;2023-08-31T01:45:00;10.80;99.90
21861;DHT22;11095;48.066;8.540;2023-08-31T01:47:26;10.80;99.90
21861;DHT22;11095;48.066;8.540;2023-08-31T01:49:52;10.70;99.90
21861;DHT22;11095;48.066;8.540;2023-08-31T01:52:18;10.70;99.90
21861;DHT22;11095;48.066;8.540;2023-08-31T01:54:44;10.70;99.90
21861;DHT22;11095;48.066;8.540;2023-08-31T01:57:09;10.60;99.90
21861;DHT22;11095;48.066;8.540;2023-08-31T01:59:35;10.60;99.90
21861;DHT22;11095;48.066;8.540;2023-08-31T02:02:01;10.50;99.90
21861;DHT22;11095;48.066;8.540;2023-08-31T02:04:26;10.50;99.90
21861;DHT22;11095;48.066;8.540;2023-08-31T02:06:52;10.50;99.90
21861;DHT22;11095;48.066;8.540;2023-08-31T02:09:18;10.50;99.90
21861;DHT22;11095;48.066;8.540;2023-08-31T02:11:43;10.50;99.90
21861;DHT22;11095;48.066;8.540;2023-08-31T02:14:09;10.50;99.90
21861;DHT22;11095;48.066;8.540;2023-08-31T02:16:34;10.60;99.90
21861;DHT22;11095;48.066;8.540;2023-08-31T02:19:00;10.60;99.90
21861;DHT22;11095;48.066;8.540;2023-08-31T02:21:26;10.60;99.90
21861;DHT22;11095;48.066;8.540;2023-08-31T02:23:51;10.70;99.90
21861;DHT22;11095;48.066;8.540;2023-08-31T02:26:17;10.70;99.90
21861;DHT22;11095;48.066;8.540;2023-08-31T02:28:42;10.80;99.90
21861;DHT22;11095;48.066;8.540;2023-08-31T02:31:10;10.70;99.90
21861;DHT22;11095;48.066;8.540;2023-08-31T02:33:37;10.80;99.90
21861;DHT22;11095;48.066;8.540;2023-08-31T02:36:03;10.80;99.90
21861;DHT22;11095;48.066;8.540;2023-08-31T02:38:28;10.80;99.90
21861;DHT22;11095;48.066;8.540;2023-08-31T02:40:54;10.80;99.90
21861;DHT22;11095;48.066;8.540;2023-08-31T02:43:19;10.80;99.90
21861;DHT22;11095;48.066;8.540;2023-08-31T02:45:45;10.80;99.90
21861;DHT22;11095;48.066;8.540;2023-08-31T02:48:11;10.80;99.90
21861;DHT22;11095;48.066;8.540;2023-08-31T02:50:36;10.80;99.90
21861;DHT22;11095;48.066;8.540;2023-08-31T02:53:03;10.80;99.90
21861;DHT22;11095;48.066;8.540;2023-08-31T02:55:29;10.80;99.90
21861;DHT22;11095;48.066;8.540;2023-08-31T02:57:57;10.80;99.90
21861;DHT22;11095;48.066;8.540;2023-08-31T03:00:22;10.80;99.90
21861;DHT22;11095;48.066;8.540;2023-08-31T03:02:48;10.70;99.90
21861;DHT22;11095;48.066;8.540;2023-08-31T03:05:18;10.60;99.90
21861;DHT22;11095;48.066;8.540;2023-08-31T03:07:43;10.50;99.90
21861;DHT22;11095;48.066;8.540;2023-08-31T03:10:09;10.40;99.90
21861;DHT22;11095;48.066;8.540;2023-08-31T03:12:35;10.40;99.90
21861;DHT22;11095;48.066;8.540;2023-08-31T03:15:01;10.30;99.90
21861;DHT22;11095;48.066;8.540;2023-08-31T03:17:27;10.30;99.90
21861;DHT22;11095;48.066;8.540;2023-08-31T03:19:53;10.30;99.90
21861;DHT22;11095;48.066;8.540;2023-08-31T03:22:19;10.30;99.90
21861;DHT22;11095;48.066;8.540;2023-08-31T03:24:44;10.30;99.90
21861;DHT22;11095;48.066;8.540;2023-08-31T03:27:10;10.30;99.90
21861;DHT22;11095;48.066;8.540;2023-08-31T03:29:35;10.30;99.90
21861;DHT22;11095;48.066;8.540;2023-08-31T03:32:01;10.30;99.90
21861;DHT22;11095;48.066;8.540;2023-08-31T03:34:31;10.30;99.90
21861;DHT22;11095;48.066;8.540;2023-08-31T03:36:58;10.30;99.90
21861;DHT22;11095;48.066;8.540;2023-08-31T03:39:24;10.30;99.90
21861;DHT22;11095;48.066;8.540;2023-08-31T03:41:50;10.40;99.90
21861;DHT22;11095;48.066;8.540;2023-08-31T03:44:16;10.30;99.90
21861;DHT22;11095;48.066;8.540;2023-08-31T03:46:42;10.30;99.90
21861;DHT22;11095;48.066;8.540;2023-08-31T03:49:08;10.20;99.90
21861;DHT22;11095;48.066;8.540;2023-08-31T03:51:33;10.20;99.90
21861;DHT22;11095;48.066;8.540;2023-08-31T03:53:59;10.20;99.90
21861;DHT22;11095;48.066;8.540;2023-08-31T03:56:24;10.20;99.90
21861;DHT22;11095;48.066;8.540;2023-08-31T03:58:50;10.20;99.90
21861;DHT22;11095;48.066;8.540;2023-08-31T04:01:16;10.20;99.90
21861;DHT22;11095;48.066;8.540;2023-08-31T04:03:43;10.20;99.90
21861;DHT22;11095;48.066;8.540;2023-08-31T04:06:08;10.20;99.90
21861;DHT22;11095;48.066;8.540;2023-08-31T04:08:34;10.20;99.90
21861;DHT22;11095;48.066;8.540;2023-08-31T04:11:00;10.20;99.90
21861;DHT22;11095;48.066;8.540;2023-08-31T04:13:25;10.20;99.90
21861;DHT22;11095;48.066;8.540;2023-08-31T04:15:52;10.10;99.90
21861;DHT22;11095;48.066;8.540;2023-08-31T04:18:18;10.10;99.90
21861;DHT22;11095;48.066;8.540;2023-08-31T04:20:53;10.10;99.90
21861;DHT22;11095;48.066;8.540;2023-08-31T04:23:19;10.10;99.90
21861;DHT22;11095;48.066;8.540;2023-08-31T04:25:46;10.10;99.90
21861;DHT22;11095;48.066;8.540;2023-08-31T04:28:13;10.10;99.90
21861;DHT22;11095;48.066;8.540;2023-08-31T04:30:41;10.10;99.90
21861;DHT22;11095;48.066;8.540;2023-08-31T04:33:07;10.10;99.90
21861;DHT22;11095;48.066;8.540;2023-08-31T04:35:33;10.10;99.90
21861;DHT22;11095;48.066;8.540;2023-08-31T04:37:59;10.10;99.90
21861;DHT22;11095;48.066;8.540;2023-08-31T04:40:24;10.10;99.90
21861;DHT22;11095;48.066;8.540;2023-08-31T04:42:50;10.00;99.90
21861;DHT22;11095;48.066;8.540;2023-08-31T04:45:16;10.00;99.90
21861;DHT22;11095;48.066;8.540;2023-08-31T04:47:42;10.00;99.90
21861;DHT22;11095;48.066;8.540;2023-08-31T04:50:08;10.00;99.90
21861;DHT22;11095;48.066;8.540;2023-08-31T04:52:34;9.90;99.90
21861;DHT22;11095;48.066;8.540;2023-08-31T04:55:05;9.90;99.90
21861;DHT22;11095;48.066;8.540;2023-08-31T04:57:32;9.90;99.90
21861;DHT22;11095;48.066;8.540;2023-08-31T04:59:58;9.90;99.90
21861;DHT22;11095;48.066;8.540;2023-08-31T05:02:23;10.00;99.90
21861;DHT22;11095;48.066;8.540;2023-08-31T05:04:49;10.10;99.90
21861;DHT22;11095;48.066;8.540;2023-08-31T05:07:14;10.20;99.90
21861;DHT22;11095;48.066;8.540;2023-08-31T05:09:40;10.20;99.90
21861;DHT22;11095;48.066;8.540;2023-08-31T05:12:06;10.20;99.90
21861;DHT22;11095;48.066;8.540;2023-08-31T05:14:32;10.30;99.90
21861;DHT22;11095;48.066;8.540;2023-08-31T05:17:00;10.30;99.90
21861;DHT22;11095;48.066;8.540;2023-08-31T05:19:26;10.30;99.90
21861;DHT22;11095;48.066;8.540;2023-08-31T05:21:51;10.90;99.90
21861;DHT22;11095;48.066;8.540;2023-08-31T05:24:17;11.80;99.90
21861;DHT22;11095;48.066;8.540;2023-08-31T05:26:42;12.90;99.90
21861;DHT22;11095;48.066;8.540;2023-08-31T05:29:08;14.00;99.90
21861;DHT22;11095;48.066;8.540;2023-08-31T05:31:33;14.90;99.90
21861;DHT22;11095;48.066;8.540;2023-08-31T05:33:59;15.30;99.90
21861;DHT22;11095;48.066;8.540;2023-08-31T05:36:24;16.00;99.90
21861;DHT22;11095;48.066;8.540;2023-08-31T05:38:53;17.10;99.90
21861;DHT22;11095;48.066;8.540;2023-08-31T05:41:19;18.40;99.90
21861;DHT22;11095;48.066;8.540;2023-08-31T05:43:44;19.50;99.90
21861;DHT22;11095;48.066;8.540;2023-08-31T05:46:11;20.50;99.90
21861;DHT22;11095;48.066;8.540;2023-08-31T05:48:36;20.90;99.90
21861;DHT22;11095;48.066;8.540;2023-08-31T05:51:02;20.60;99.90
21861;DHT22;11095;48.066;8.540;2023-08-31T05:53:32;19.90;99.90
21861;DHT22;11095;48.066;8.540;2023-08-31T05:55:58;18.90;99.90
21861;DHT22;11095;48.066;8.540;2023-08-31T05:58:34;17.90;99.90
21861;DHT22;11095;48.066;8.540;2023-08-31T06:01:00;17.00;99.90
21861;DHT22;11095;48.066;8.540;2023-08-31T06:03:26;16.30;99.90
21861;DHT22;11095;48.066;8.540;2023-08-31T06:05:52;15.60;99.90
21861;DHT22;11095;48.066;8.540;2023-08-31T06:08:17;15.00;99.90
21861;DHT22;11095;48.066;8.540;2023-08-31T06:10:43;14.60;99.90
21861;DHT22;11095;48.066;8.540;2023-08-31T06:13:09;14.30;99.90
21861;DHT22;11095;48.066;8.540;2023-08-31T06:15:34;14.00;99.90
21861;DHT22;11095;48.066;8.540;2023-08-31T06:18:00;13.70;99.90
21861;DHT22;11095;48.066;8.540;2023-08-31T06:20:25;13.60;99.90
21861;DHT22;11095;48.066;8.540;2023-08-31T06:22:51;13.40;99.90
21861;DHT22;11095;48.066;8.540;2023-08-31T06:25:16;13.30;99.90
21861;DHT22;11095;48.066;8.540;2023-08-31T06:27:44;13.20;99.90
21861;DHT22;11095;48.066;8.540;2023-08-31T06:30:10;13.10;99.90
21861;DHT22;11095;48.066;8.540;2023-08-31T06:32:44;13.00;99.90
21861;DHT22;11095;48.066;8.540;2023-08-31T06:35:11;13.00;99.90
21861;DHT22;11095;48.066;8.540;2023-08-31T06:37:38;13.10;99.90
21861;DHT22;11095;48.066;8.540;2023-08-31T06:40:05;13.20;99.90
21861;DHT22;11095;48.066;8.540;2023-08-31T06:42:30;13.90;99.90
21861;DHT22;11095;48.066;8.540;2023-08-31T06:44:56;16.00;99.90
21861;DHT22;11095;48.066;8.540;2023-08-31T06:47:22;18.60;99.90
21861;DHT22;11095;48.066;8.540;2023-08-31T06:49:49;21.40;99.90
21861;DHT22;11095;48.066;8.540;2023-08-31T06:52:15;23.60;99.90
21861;DHT22;11095;48.066;8.540;2023-08-31T06:54:41;25.10;99.90
21861;DHT22;11095;48.066;8.540;2023-08-31T06:57:07;26.10;99.90
21861;DHT22;11095;48.066;8.540;2023-08-31T06:59:33;27.00;99.90
21861;DHT22;11095;48.066;8.540;2023-08-31T07:01:58;28.10;99.90
21861;DHT22;11095;48.066;8.540;2023-08-31T07:04:24;28.90;99.90
21861;DHT22;11095;48.066;8.540;2023-08-31T07:06:51;29.50;99.90
21861;DHT22;11095;48.066;8.540;2023-08-31T07:09:17;30.00;99.30
21861;DHT22;11095;48.066;8.540;2023-08-31T07:11:42;30.70;98.70
21861;DHT22;11095;48.066;8.540;2023-08-31T07:14:08;30.70;97.00
21861;DHT22;11095;48.066;8.540;2023-08-31T07:16:34;30.30;96.20
21861;DHT22;11095;48.066;8.540;2023-08-31T07:18:59;29.80;97.10
21861;DHT22;11095;48.066;8.540;2023-08-31T07:21:25;30.00;96.70
21861;DHT22;11095;48.066;8.540;2023-08-31T07:23:52;29.60;96.70
21861;DHT22;11095;48.066;8.540;2023-08-31T07:26:18;29.50;96.80
21861;DHT22;11095;48.066;8.540;2023-08-31T07:28:43;29.60;95.10
21861;DHT22;11095;48.066;8.540;2023-08-31T07:31:10;30.00;94.50
21861;DHT22;11095;48.066;8.540;2023-08-31T07:33:36;30.80;93.10
21861;DHT22;11095;48.066;8.540;2023-08-31T07:36:02;31.10;92.60
21861;DHT22;11095;48.066;8.540;2023-08-31T07:38:30;31.30;91.30
21861;DHT22;11095;48.066;8.540;2023-08-31T07:40:56;31.30;89.40
21861;DHT22;11095;48.066;8.540;2023-08-31T07:43:22;30.60;90.00
21861;DHT22;11095;48.066;8.540;2023-08-31T07:45:48;30.70;89.90
21861;DHT22;11095;48.066;8.540;2023-08-31T07:48:14;31.30;88.90
21861;DHT22;11095;48.066;8.540;2023-08-31T07:50:41;31.50;86.40
21861;DHT22;11095;48.066;8.540;2023-08-31T07:53:07;31.00;85.90
21861;DHT22;11095;48.066;8.540;2023-08-31T07:55:32;31.10;86.50
21861;DHT22;11095;48.066;8.540;2023-08-31T07:57:58;31.70;84.50
21861;DHT22;11095;48.066;8.540;2023-08-31T08:00:24;32.30;83.20
21861;DHT22;11095;48.066;8.540;2023-08-31T08:02:49;32.20;81.30
21861;DHT22;11095;48.066;8.540;2023-08-31T08:05:15;32.20;80.10
21861;DHT22;11095;48.066;8.540;2023-08-31T08:07:41;32.30;80.40
21861;DHT22;11095;48.066;8.540;2023-08-31T08:10:08;32.00;78.10
21861;DHT22;11095;48.066;8.540;2023-08-31T08:12:38;30.70;77.10
21861;DHT22;11095;48.066;8.540;2023-08-31T08:15:05;29.50;81.50
21861;DHT22;11095;48.066;8.540;2023-08-31T08:17:35;28.80;82.20
21861;DHT22;11095;48.066;8.540;2023-08-31T08:20:01;27.90;80.80
21861;DHT22;11095;48.066;8.540;2023-08-31T08:22:27;26.80;82.20
21861;DHT22;11095;48.066;8.540;2023-08-31T08:24:52;26.20;83.30
21861;DHT22;11095;48.066;8.540;2023-08-31T08:27:18;26.10;85.20
21861;DHT22;11095;48.066;8.540;2023-08-31T08:29:45;26.40;85.70
21861;DHT22;11095;48.066;8.540;2023-08-31T08:32:10;26.70;85.70
21861;DHT22;11095;48.066;8.540;2023-08-31T08:34:36;26.90;85.50
21861;DHT22;11095;48.066;8.540;2023-08-31T08:37:02;27.00;79.70
21861;DHT22;11095;48.066;8.540;2023-08-31T08:39:29;27.20;76.50
21861;DHT22;11095;48.066;8.540;2023-08-31T08:41:59;27.40;75.70
21861;DHT22;11095;48.066;8.540;2023-08-31T08:44:25;26.80;77.30
21861;DHT22;11095;48.066;8.540;2023-08-31T08:46:52;26.70;74.80
21861;DHT22;11095;48.066;8.540;2023-08-31T08:49:18;26.50;76.30
21861;DHT22;11095;48.066;8.540;2023-08-31T08:51:45;26.80;76.30
21861;DHT22;11095;48.066;8.540;2023-08-31T08:54:13;27.30;74.60
21861;DHT22;11095;48.066;8.540;2023-08-31T08:56:39;27.10;75.20
21861;DHT22;11095;48.066;8.540;2023-08-31T08:59:05;27.20;76.50
21861;DHT22;11095;48.066;8.540;2023-08-31T09:01:32;26.90;75.90
21861;DHT22;11095;48.066;8.540;2023-08-31T09:03:58;27.00;76.00
21861;DHT22;11095;48.066;8.540;2023-08-31T09:06:26;27.20;76.00
21861;DHT22;11095;48.066;8.540;2023-08-31T09:08:56;26.30;76.00
21861;DHT22;11095;48.066;8.540;2023-08-31T09:11:23;25.50;76.00
21861;DHT22;11095;48.066;8.540;2023-08-31T09:13:52;24.90;79.20
21861;DHT22;11095;48.066;8.540;2023-08-31T09:16:28;24.80;81.00
21861;DHT22;11095;48.066;8.540;2023-08-31T09:18:55;24.70;78.60
21861;DHT22;11095;48.066;8.540;2023-08-31T09:21:21;24.50;80.90
21861;DHT22;11095;48.066;8.540;2023-08-31T09:23:56;24.90;81.00
21861;DHT22;11095;48.066;8.540;2023-08-31T09:26:25;24.60;78.60
21861;DHT22;11095;48.066;8.540;2023-08-31T09:28:50;24.20;79.60
21861;DHT22;11095;48.066;8.540;2023-08-31T09:31:17;23.80;81.10
21861;DHT22;11095;48.066;8.540;2023-08-31T09:33:52;23.40;81.70
21861;DHT22;11095;48.066;8.540;2023-08-31T09:36:19;23.10;83.20
21861;DHT22;11095;48.066;8.540;2023-08-31T09:38:46;22.70;83.70
21861;DHT22;11095;48.066;8.540;2023-08-31T09:41:12;22.40;85.10
21861;DHT22;11095;48.066;8.540;2023-08-31T09:43:38;22.20;86.60
21861;DHT22;11095;48.066;8.540;2023-08-31T09:46:04;22.10;87.10
21861;DHT22;11095;48.066;8.540;2023-08-31T09:48:31;21.80;86.90
21861;DHT22;11095;48.066;8.540;2023-08-31T09:50:57;22.10;87.80
21861;DHT22;11095;48.066;8.540;2023-08-31T09:53:29;22.40;88.00
21861;DHT22;11095;48.066;8.540;2023-08-31T09:55:54;22.90;90.00
21861;DHT22;11095;48.066;8.540;2023-08-31T09:58:22;23.40;87.50
21861;DHT22;11095;48.066;8.540;2023-08-31T10:00:49;23.90;85.40
21861;DHT22;11095;48.066;8.540;2023-08-31T10:03:16;23.90;84.10
21861;DHT22;11095;48.066;8.540;2023-08-31T10:05:49;23.50;84.90
21861;DHT22;11095;48.066;8.540;2023-08-31T10:08:16;22.90;85.40
21861;DHT22;11095;48.066;8.540;2023-08-31T10:10:42;22.00;89.10
21861;DHT22;11095;48.066;8.540;2023-08-31T10:13:08;21.80;90.10
21861;DHT22;11095;48.066;8.540;2023-08-31T10:15:35;21.70;91.10
21861;DHT22;11095;48.066;8.540;2023-08-31T10:18:02;21.60;90.70
21861;DHT22;11095;48.066;8.540;2023-08-31T10:20:29;21.60;90.40
21861;DHT22;11095;48.066;8.540;2023-08-31T10:23:07;21.50;90.20
21861;DHT22;11095;48.066;8.540;2023-08-31T10:25:59;21.50;89.40
21861;DHT22;11095;48.066;8.540;2023-08-31T10:28:26;21.30;90.20
21861;DHT22;11095;48.066;8.540;2023-08-31T10:31:06;21.10;90.50
21861;DHT22;11095;48.066;8.540;2023-08-31T10:34:03;20.80;91.10
21861;DHT22;11095;48.066;8.540;2023-08-31T10:36:45;20.60;91.80
21861;DHT22;11095;48.066;8.540;2023-08-31T10:39:12;20.70;92.00
21861;DHT22;11095;48.066;8.540;2023-08-31T10:41:39;20.90;92.60
21861;DHT22;11095;48.066;8.540;2023-08-31T10:44:37;21.40;91.60
21861;DHT22;11095;48.066;8.540;2023-08-31T10:47:08;21.60;91.30
21861;DHT22;11095;48.066;8.540;2023-08-31T10:49:33;22.00;91.30
21861;DHT22;11095;48.066;8.540;2023-08-31T10:52:16;22.50;90.80
21861;DHT22;11095;48.066;8.540;2023-08-31T10:54:46;23.20;90.40
21861;DHT22;11095;48.066;8.540;2023-08-31T10:57:12;23.70;90.00
21861;DHT22;11095;48.066;8.540;2023-08-31T11:02:35;23.40;86.70
21861;DHT22;11095;48.066;8.540;2023-08-31T11:05:17;23.20;87.80
21861;DHT22;11095;48.066;8.540;2023-08-31T11:07:49;23.20;89.60
21861;DHT22;11095;48.066;8.540;2023-08-31T11:10:25;23.20;87.10
21861;DHT22;11095;48.066;8.540;2023-08-31T11:12:53;23.20;89.90
21861;DHT22;11095;48.066;8.540;2023-08-31T11:15:21;23.10;90.20
21861;DHT22;11095;48.066;8.540;2023-08-31T11:17:50;22.90;90.30
21861;DHT22;11095;48.066;8.540;2023-08-31T11:20:17;22.90;89.20
21861;DHT22;11095;48.066;8.540;2023-08-31T11:22:45;22.90;89.40
21861;DHT22;11095;48.066;8.540;2023-08-31T11:25:12;22.80;90.00
21861;DHT22;11095;48.066;8.540;2023-08-31T11:27:38;22.80;90.30
21861;DHT22;11095;48.066;8.540;2023-08-31T11:30:28;22.60;90.80
21861;DHT22;11095;48.066;8.540;2023-08-31T11:32:54;22.60;87.80
21861;DHT22;11095;48.066;8.540;2023-08-31T11:35:21;22.40;90.40
21861;DHT22;11095;48.066;8.540;2023-08-31T11:37:55;22.10;90.50
21861;DHT22;11095;48.066;8.540;2023-08-31T11:40:20;22.00;91.00
21861;DHT22;11095;48.066;8.540;2023-08-31T11:42:48;21.90;90.80
21861;DHT22;11095;48.066;8.540;2023-08-31T11:45:14;21.70;90.90
21861;DHT22;11095;48.066;8.540;2023-08-31T11:47:41;21.70;91.50
21861;DHT22;11095;48.066;8.540;2023-08-31T11:50:07;21.70;91.80
21861;DHT22;11095;48.066;8.540;2023-08-31T11:52:33;21.60;91.90
21861;DHT22;11095;48.066;8.540;2023-08-31T11:54:59;21.60;91.10
21861;DHT22;11095;48.066;8.540;2023-08-31T11:57:28;21.40;92.20
21861;DHT22;11095;48.066;8.540;2023-08-31T11:59:55;21.50;92.10
21861;DHT22;11095;48.066;8.540;2023-08-31T12:02:22;21.70;92.30
21861;DHT22;11095;48.066;8.540;2023-08-31T12:04:48;21.80;91.80
21861;DHT22;11095;48.066;8.540;2023-08-31T12:07:18;21.80;91.80
21861;DHT22;11095;48.066;8.540;2023-08-31T12:09:44;21.70;91.30
21861;DHT22;11095;48.066;8.540;2023-08-31T12:12:11;21.60;92.30
21861;DHT22;11095;48.066;8.540;2023-08-31T12:14:38;21.60;92.30
21861;DHT22;11095;48.066;8.540;2023-08-31T12:17:08;21.60;92.10
21861;DHT22;11095;48.066;8.540;2023-08-31T12:19:36;21.50;91.90
21861;DHT22;11095;48.066;8.540;2023-08-31T12:22:02;21.50;92.40
21861;DHT22;11095;48.066;8.540;2023-08-31T12:24:28;21.40;92.70
21861;DHT22;11095;48.066;8.540;2023-08-31T12:26:53;21.30;92.50
21861;DHT22;11095;48.066;8.540;2023-08-31T12:29:19;21.10;92.30
21861;DHT22;11095;48.066;8.540;2023-08-31T12:31:45;21.00;92.70
21861;DHT22;11095;48.066;8.540;2023-08-31T12:34:11;20.90;92.60
21861;DHT22;11095;48.066;8.540;2023-08-31T12:36:37;20.90;93.60
21861;DHT22;11095;48.066;8.540;2023-08-31T12:39:04;20.90;92.60
21861;DHT22;11095;48.066;8.540;2023-08-31T12:41:32;21.10;92.60
21861;DHT22;11095;48.066;8.540;2023-08-31T12:43:58;21.20;92.70
21861;DHT22;11095;48.066;8.540;2023-08-31T12:46:24;21.20;92.20
21861;DHT22;11095;48.066;8.540;2023-08-31T12:48:51;21.30;92.80
21861;DHT22;11095;48.066;8.540;2023-08-31T12:51:18;21.20;93.20
21861;DHT22;11095;48.066;8.540;2023-08-31T12:53:44;21.40;93.70
21861;DHT22;11095;48.066;8.540;2023-08-31T12:56:09;21.50;92.50
21861;DHT22;11095;48.066;8.540;2023-08-31T12:58:35;21.40;92.70
21861;DHT22;11095;48.066;8.540;2023-08-31T13:01:01;21.40;92.60
21861;DHT22;11095;48.066;8.540;2023-08-31T13:03:27;21.50;92.20
21861;DHT22;11095;48.066;8.540;2023-08-31T13:05:53;21.60;91.80
21861;DHT22;11095;48.066;8.540;2023-08-31T13:08:19;21.50;92.50
21861;DHT22;11095;48.066;8.540;2023-08-31T13:10:51;21.30;91.90
21861;DHT22;11095;48.066;8.540;2023-08-31T13:13:17;21.10;92.60
21861;DHT22;11095;48.066;8.540;2023-08-31T13:15:43;21.00;92.30
21861;DHT22;11095;48.066;8.540;2023-08-31T13:18:10;20.90;92.10
21861;DHT22;11095;48.066;8.540;2023-08-31T13:20:36;21.00;92.10
21861;DHT22;11095;48.066;8.540;2023-08-31T13:23:02;20.80;91.30
21861;DHT22;11095;48.066;8.540;2023-08-31T13:25:28;20.70;92.00
21861;DHT22;11095;48.066;8.540;2023-08-31T13:27:54;20.70;92.70
21861;DHT22;11095;48.066;8.540;2023-08-31T13:30:19;20.90;92.20
21861;DHT22;11095;48.066;8.540;2023-08-31T13:32:45;21.00;91.70
21861;DHT22;11095;48.066;8.540;2023-08-31T13:35:10;21.10;92.00
21861;DHT22;11095;48.066;8.540;2023-08-31T13:37:36;21.20;91.70
21861;DHT22;11095;48.066;8.540;2023-08-31T13:40:02;21.10;91.30
21861;DHT22;11095;48.066;8.540;2023-08-31T13:42:34;21.10;91.20
21861;DHT22;11095;48.066;8.540;2023-08-31T13:45:01;21.00;90.90
21861;DHT22;11095;48.066;8.540;2023-08-31T13:47:26;21.00;91.30
21861;DHT22;11095;48.066;8.540;2023-08-31T13:49:52;21.00;92.10
21861;DHT22;11095;48.066;8.540;2023-08-31T13:52:17;21.00;91.90
21861;DHT22;11095;48.066;8.540;2023-08-31T13:54:46;20.90;92.20
21861;DHT22;11095;48.066;8.540;2023-08-31T13:57:11;20.90;92.20
21861;DHT22;11095;48.066;8.540;2023-08-31T13:59:42;20.90;91.60
21861;DHT22;11095;48.066;8.540;2023-08-31T14:02:08;20.90;91.90
21861;DHT22;11095;48.066;8.540;2023-08-31T14:04:34;20.90;92.20
21861;DHT22;11095;48.066;8.540;2023-08-31T14:06:59;20.90;91.60
21861;DHT22;11095;48.066;8.540;2023-08-31T14:09:27;20.90;91.80
21861;DHT22;11095;48.066;8.540;2023-08-31T14:11:52;20.90;92.10
21861;DHT22;11095;48.066;8.540;2023-08-31T14:14:19;20.80;92.00
21861;DHT22;11095;48.066;8.540;2023-08-31T14:16:45;20.80;92.30
21861;DHT22;11095;48.066;8.540;2023-08-31T14:19:11;20.80;92.80
21861;DHT22;11095;48.066;8.540;2023-08-31T14:21:37;20.80;92.60
21861;DHT22;11095;48.066;8.540;2023-08-31T14:24:02;20.60;93.00
21861;DHT22;11095;48.066;8.540;2023-08-31T14:26:29;20.60;93.40
21861;DHT22;11095;48.066;8.540;2023-08-31T14:28:55;20.60;93.90
21861;DHT22;11095;48.066;8.540;2023-08-31T14:31:20;20.60;94.20
21861;DHT22;11095;48.066;8.540;2023-08-31T14:33:46;20.70;93.70
21861;DHT22;11095;48.066;8.540;2023-08-31T14:36:14;20.70;93.30
21861;DHT22;11095;48.066;8.540;2023-08-31T14:38:40;20.70;93.10
21861;DHT22;11095;48.066;8.540;2023-08-31T14:41:05;20.70;93.20
21861;DHT22;11095;48.066;8.540;2023-08-31T14:43:32;20.60;93.50
21861;DHT22;11095;48.066;8.540;2023-08-31T14:45:58;20.60;93.40
21861;DHT22;11095;48.066;8.540;2023-08-31T14:48:29;20.60;94.10
21861;DHT22;11095;48.066;8.540;2023-08-31T14:50:55;20.70;94.60
21861;DHT22;11095;48.066;8.540;2023-08-31T14:53:21;20.60;94.30
21861;DHT22;11095;48.066;8.540;2023-08-31T14:55:51;20.60;94.90
21861;DHT22;11095;48.066;8.540;2023-08-31T14:58:18;20.50;95.20
21861;DHT22;11095;48.066;8.540;2023-08-31T15:00:44;20.60;95.30
21861;DHT22;11095;48.066;8.540;2023-08-31T15:03:10;20.70;96.10
21861;DHT22;11095;48.066;8.540;2023-08-31T15:05:36;20.70;94.90
21861;DHT22;11095;48.066;8.540;2023-08-31T15:08:05;20.60;94.40
21861;DHT22;11095;48.066;8.540;2023-08-31T15:10:31;20.60;94.50
21861;DHT22;11095;48.066;8.540;2023-08-31T15:12:57;20.50;94.70
21861;DHT22;11095;48.066;8.540;2023-08-31T15:15:26;20.40;95.10
21861;DHT22;11095;48.066;8.540;2023-08-31T15:17:52;20.10;95.00
21861;DHT22;11095;48.066;8.540;2023-08-31T15:20:17;20.00;95.50
21861;DHT22;11095;48.066;8.540;2023-08-31T15:22:43;19.80;95.90
21861;DHT22;11095;48.066;8.540;2023-08-31T15:25:09;19.80;96.10
21861;DHT22;11095;48.066;8.540;2023-08-31T15:27:34;19.90;96.60
21861;DHT22;11095;48.066;8.540;2023-08-31T15:30:00;19.90;96.60
21861;DHT22;11095;48.066;8.540;2023-08-31T15:32:26;20.00;96.40
21861;DHT22;11095;48.066;8.540;2023-08-31T15:34:51;20.00;96.40
21861;DHT22;11095;48.066;8.540;2023-08-31T15:37:17;20.00;96.60
21861;DHT22;11095;48.066;8.540;2023-08-31T15:39:43;20.00;96.80